Etusivu
METAR-TAF:

METAR-TAF

Lentoasemat :

Alexander City, Alabama, Yhdysvallat

Leveyspiiri: 32-54-53N, Pituuspiiri: 085-57-46W, korkeus merenpinnasta: 209 m

Tämänhetkinen sää

Tämä raportti tehtiin 18 minuuttia sitten, kello 23.55 UTC
tyyntä
Lämpötila 13°C
Kosteus 100%
Ilmanpaine 1010 hPa
Näkyvyys: 16.1 km
selkeää

METAR: KALX 142355Z AUTO 00000KT 10SM CLR 13/13 A2983 RMK AO2 60003 T01260126 10126 20115

Aika: 18:13 (00:13 UTC)


TAF: puuttuu

Säähavainnot ja -ennusteet yli 4000 lentoasemalta (METAR- ja TAF-raportit).

Käytössä olevat sääasemat on merkitty karttaan keltaisilla ja punaisilla pisteillä.

Aseta hiiri pisteen päälle nähdäksesi sääaseman nimen.

Klikkaa sitten nähdäksesi säähavainnot ja -ennusteet.

Kartan vaihtaminen: klikkaa mustalla rastilla varustettuja vihreitä pisteitä, niin voit zoomata sisään; viivalla varustettua vihreää pistettä, niin voit zoomata ulos tai vihreitä nuolia, niin pääset viereisille kartoille.


METAR-TAF: